Time;durP1;ratioP1;P1;durP2;ratioP2;P2;SDS_P1;SDS_P2;PMS_P1;PMS_P2;Temp;Humidity;BMP_temperature;BMP_pressure;BME280_temperature;BME280_humidity;BME280_pressure;Samples;Min_cycle;Max_cycle;Signal;HPM_P1;HPM_P2
2022/03/29 00:01:09;;;;;;;;;;;;;;;18.34;42.68;100448.00;4902634;28;108300;-61
2022/03/29 00:03:35;;;;;;;;;;;;;;;18.31;42.63;100443.19;4903884;28;97926;-62
2022/03/29 00:06:00;;;;;;;;;;;;;;;18.30;42.83;100438.84;4920288;28;119597;-61
2022/03/29 00:08:26;;;;;;;;;;;;;;;18.26;42.77;100432.41;4921170;28;98407;-62
2022/03/29 00:10:52;;;;;;;;;;;;;;;18.24;42.75;100429.22;4919390;28;128547;-62
2022/03/29 00:13:18;;;;;;;;;;;;;;;18.22;42.68;100427.94;4920293;28;123263;-62
2022/03/29 00:15:45;;;;;;;;;;;;;;;18.20;42.75;100425.53;4920542;28;121802;-61
2022/03/29 00:18:10;;;;;;;;;;;;;;;18.17;42.81;100419.91;4921344;28;98909;-62
2022/03/29 00:20:36;;;;;;;;;;;;;;;18.14;42.77;100410.41;4919838;28;126074;-61
2022/03/29 00:23:03;;;;;;;;;;;;;;;18.13;42.76;100417.00;4920115;28;126507;-62
2022/03/29 00:25:29;;;;;;;;;;;;;;;18.09;42.68;100411.38;4916291;28;98116;-61
2022/03/29 00:27:55;;;;;;;;;;;;;;;18.07;42.85;100415.53;4910247;28;104251;-62
2022/03/29 00:30:21;;;;;;;;;;;;;;;18.05;42.85;100417.81;4918948;28;127171;-61
2022/03/29 00:32:47;;;;;;;;;;;;;;;18.02;42.93;100416.50;4916364;28;128215;-62
2022/03/29 00:35:13;;;;;;;;;;;;;;;18.01;42.84;100420.34;4919042;28;120589;-61
2022/03/29 00:37:39;;;;;;;;;;;;;;;17.99;42.83;100427.25;4920209;28;128835;-61
2022/03/29 00:40:06;;;;;;;;;;;;;;;17.96;42.82;100419.69;4920078;28;126665;-62
2022/03/29 00:42:32;;;;;;;;;;;;;;;17.94;42.97;100419.22;4919284;28;126317;-61
2022/03/29 00:44:58;;;;;;;;;;;;;;;17.91;42.97;100426.91;4920030;28;98697;-61
2022/03/29 00:47:24;;;;;;;;;;;;;;;17.88;42.87;100418.53;4919971;28;99108;-62
2022/03/29 00:49:50;;;;;;;;;;;;;;;17.86;42.92;100421.59;4920084;28;112632;-61
2022/03/29 00:52:16;;;;;;;;;;;;;;;17.84;43.02;100412.13;4919102;28;120204;-61
2022/03/29 00:54:42;;;;;;;;;;;;;;;17.82;42.94;100411.66;4901824;28;98192;-62
2022/03/29 00:57:08;;;;;;;;;;;;;;;17.78;42.93;100411.47;4919274;28;128931;-62
2022/03/29 00:59:38;;;;;;;;;;;;;;;17.76;42.96;100410.97;4920161;28;98131;-61
2022/03/29 01:02:03;;;;;;;;;;;;;;;17.75;42.93;100411.31;4902697;28;98696;-62
2022/03/29 01:04:29;;;;;;;;;;;;;;;17.71;43.02;100408.38;4919583;28;122575;-62
2022/03/29 01:06:59;;;;;;;;;;;;;;;17.69;43.02;100402.44;4919445;28;128223;-62
2022/03/29 01:09:29;;;;;;;;;;;;;;;17.66;42.86;100403.88;4918897;28;98691;-62
2022/03/29 01:11:55;;;;;;;;;;;;;;;17.63;42.99;100404.50;4919916;28;98541;-63
2022/03/29 01:14:22;;;;;;;;;;;;;;;17.62;42.93;100399.38;4920248;28;97818;-62
2022/03/29 01:19:33;;;;;;;;;;;;;;;17.57;43.04;100388.63;4917260;28;98097;-63
2022/03/29 01:21:59;;;;;;;;;;;;;;;17.54;42.86;100384.59;4920146;28;98044;-62
2022/03/29 01:24:25;;;;;;;;;;;;;;;17.51;43.07;100382.50;4923498;28;108491;-63
2022/03/29 01:26:52;;;;;;;;;;;;;;;17.50;42.90;100377.38;4917369;28;98576;-62
2022/03/29 01:29:20;;;;;;;;;;;;;;;17.47;42.87;100378.81;4901048;28;111992;-62
2022/03/29 01:31:46;;;;;;;;;;;;;;;17.45;43.04;100380.22;4900486;28;124000;-62
2022/03/29 01:34:12;;;;;;;;;;;;;;;17.44;43.03;100382.16;4902130;28;97782;-63
2022/03/29 01:36:38;;;;;;;;;;;;;;;17.41;42.84;100380.88;4901071;28;120353;-62
2022/03/29 01:39:04;;;;;;;;;;;;;;;17.40;42.91;100383.91;4918908;28;126145;-63
2022/03/29 01:41:30;;;;;;;;;;;;;;;17.36;42.88;100381.00;4919774;28;104857;-62
2022/03/29 01:43:57;;;;;;;;;;;;;;;17.33;43.11;100376.22;4902249;28;98026;-62
2022/03/29 01:46:23;;;;;;;;;;;;;;;17.32;43.11;100379.22;4918733;28;123599;-63
2022/03/29 01:48:49;;;;;;;;;;;;;;;17.30;43.02;100371.38;4901859;28;98371;-63
2022/03/29 01:51:15;;;;;;;;;;;;;;;17.27;43.04;100374.72;4918526;28;108079;-63
2022/03/29 01:53:41;;;;;;;;;;;;;;;17.26;43.11;100370.41;4919727;28;97926;-62
2022/03/29 01:56:07;;;;;;;;;;;;;;;17.22;42.81;100361.25;4919113;28;98328;-62
2022/03/29 01:58:33;;;;;;;;;;;;;;;17.21;42.90;100367.00;4918510;28;128159;-63
2022/03/29 02:00:59;;;;;;;;;;;;;;;17.18;43.04;100374.69;4918940;28;127238;-62
2022/03/29 02:03:25;;;;;;;;;;;;;;;17.18;42.83;100371.16;4919735;28;118126;-63
2022/03/29 02:05:51;;;;;;;;;;;;;;;17.15;43.11;100374.50;4917979;28;127261;-62
2022/03/29 02:08:17;;;;;;;;;;;;;;;17.15;43.14;100369.06;4918456;28;126967;-63
2022/03/29 02:10:43;;;;;;;;;;;;;;;17.13;43.12;100365.84;4918807;28;126534;-63
2022/03/29 02:13:09;;;;;;;;;;;;;;;17.11;42.91;100368.09;4916450;28;123804;-63
2022/03/29 02:15:38;;;;;;;;;;;;;;;17.09;42.91;100362.94;4919152;28;98739;-63
2022/03/29 02:18:05;;;;;;;;;;;;;;;17.07;43.01;100359.75;4919244;28;97888;-63
2022/03/29 02:20:30;;;;;;;;;;;;;;;17.06;43.05;100358.13;4901518;28;98806;-62
2022/03/29 02:23:02;;;;;;;;;;;;;;;17.04;42.90;100338.56;4901323;28;98055;-63
2022/03/29 02:25:28;;;;;;;;;;;;;;;17.03;43.09;100350.59;4918972;28;99156;-63
2022/03/29 02:27:55;;;;;;;;;;;;;;;17.01;43.07;100347.38;4919239;28;123308;-62
2022/03/29 02:30:21;;;;;;;;;;;;;;;17.00;42.90;100350.41;4919111;28;98056;-63
2022/03/29 02:32:46;;;;;;;;;;;;;;;16.99;43.08;100346.09;4919474;28;97995;-62
2022/03/29 02:35:12;;;;;;;;;;;;;;;16.97;43.00;100340.94;4917691;28;127305;-62
2022/03/29 02:37:39;;;;;;;;;;;;;;;16.95;43.15;100335.00;4919610;28;128116;-63
2022/03/29 02:40:05;;;;;;;;;;;;;;;16.93;43.04;100339.97;4917914;28;112686;-63
2022/03/29 02:42:32;;;;;;;;;;;;;;;16.93;43.10;100337.22;4918848;28;113144;-62
2022/03/29 02:44:58;;;;;;;;;;;;;;;16.89;42.95;100339.78;4919055;28;98465;-62
2022/03/29 02:47:24;;;;;;;;;;;;;;;16.88;43.13;100337.38;4918075;28;127158;-63
2022/03/29 02:49:50;;;;;;;;;;;;;;;16.86;42.92;100334.97;4917674;28;126646;-62
2022/03/29 02:52:15;;;;;;;;;;;;;;;16.85;43.16;100346.97;4918836;28;98023;-62
2022/03/29 02:54:41;;;;;;;;;;;;;;;16.83;43.04;100338.31;4918741;28;113845;-63
2022/03/29 02:57:07;;;;;;;;;;;;;;;16.82;42.99;100346.78;4919084;28;98135;-63
2022/03/29 02:59:33;;;;;;;;;;;;;;;16.81;43.09;100351.41;4918272;28;98410;-63
2022/03/29 03:01:59;;;;;;;;;;;;;;;16.80;42.86;100351.75;4919955;28;123419;-63
2022/03/29 03:04:25;;;;;;;;;;;;;;;16.77;42.80;100349.63;4921036;28;120841;-63
2022/03/29 03:06:51;;;;;;;;;;;;;;;16.75;42.99;100344.53;4920946;28;127003;-62
2022/03/29 03:09:17;;;;;;;;;;;;;;;16.75;42.95;100346.44;4903304;28;127820;-62
2022/03/29 03:11:43;;;;;;;;;;;;;;;16.73;43.13;100349.47;4919302;28;122648;-62
2022/03/29 03:14:09;;;;;;;;;;;;;;;16.72;43.18;100350.53;4921236;28;115374;-63
2022/03/29 03:16:35;;;;;;;;;;;;;;;16.69;43.01;100351.97;4903607;28;111986;-63
2022/03/29 03:19:00;;;;;;;;;;;;;;;16.68;43.00;100346.84;4921211;28;127791;-62
2022/03/29 03:21:26;;;;;;;;;;;;;;;16.67;42.81;100347.97;4924498;28;122700;-62
2022/03/29 03:23:53;;;;;;;;;;;;;;;16.64;43.23;100343.94;4903093;28;130705;-62
2022/03/29 03:26:18;;;;;;;;;;;;;;;16.64;42.94;100349.38;4921508;28;98019;-63
2022/03/29 03:28:44;;;;;;;;;;;;;;;16.63;43.18;100352.41;4903400;28;128351;-63
2022/03/29 03:31:10;;;;;;;;;;;;;;;16.62;43.20;100348.06;4921669;28;99363;-63
2022/03/29 03:33:36;;;;;;;;;;;;;;;16.60;43.05;100342.94;4920907;28;127770;-63
2022/03/29 03:36:02;;;;;;;;;;;;;;;16.58;43.12;100347.09;4921112;28;122335;-63
2022/03/29 03:38:28;;;;;;;;;;;;;;;16.58;42.91;100347.09;4920636;28;126442;-62
2022/03/29 03:40:54;;;;;;;;;;;;;;;16.57;43.23;100348.22;4920161;28;122875;-62
2022/03/29 03:43:23;;;;;;;;;;;;;;;16.55;43.24;100347.72;4902525;28;128530;-63
2022/03/29 03:45:49;;;;;;;;;;;;;;;16.53;43.16;100341.78;4920339;28;126897;-63
2022/03/29 03:48:15;;;;;;;;;;;;;;;16.53;43.36;100336.34;4903086;28;99119;-62
2022/03/29 03:50:41;;;;;;;;;;;;;;;16.51;42.95;100344.03;4918781;28;98005;-63
2022/03/29 03:53:07;;;;;;;;;;;;;;;16.51;43.28;100339.38;4922013;28;97817;-63
2022/03/29 03:55:33;;;;;;;;;;;;;;;16.50;42.98;100337.75;4920693;28;115838;-63
2022/03/29 03:57:59;;;;;;;;;;;;;;;16.49;43.21;100338.06;4921072;28;98018;-62
2022/03/29 04:00:25;;;;;;;;;;;;;;;16.47;43.26;100335.66;4918739;28;99469;-62
2022/03/29 04:02:53;;;;;;;;;;;;;;;16.48;43.19;100325.59;4921418;28;97911;-63
2022/03/29 04:05:21;;;;;;;;;;;;;;;16.46;42.90;100331.31;4920753;28;98637;-63
2022/03/29 04:07:47;;;;;;;;;;;;;;;16.47;43.01;100337.59;4921973;28;98153;-63
2022/03/29 04:10:14;;;;;;;;;;;;;;;16.47;43.29;100332.16;4920783;28;104136;-62
2022/03/29 04:12:40;;;;;;;;;;;;;;;16.45;43.16;100335.97;4920521;28;98162;-63
2022/03/29 04:15:06;;;;;;;;;;;;;;;16.45;42.99;100327.81;4920717;28;98414;-62
2022/03/29 04:17:32;;;;;;;;;;;;;;;16.44;43.24;100326.19;4920795;28;98192;-63
2022/03/29 04:19:59;;;;;;;;;;;;;;;16.44;43.28;100323.47;4920461;28;98025;-63
2022/03/29 04:22:25;;;;;;;;;;;;;;;16.44;43.29;100323.47;4919372;28;98697;-62
2022/03/29 04:24:51;;;;;;;;;;;;;;;16.45;42.95;100316.13;4928401;28;99331;-62
2022/03/29 04:27:17;;;;;;;;;;;;;;;16.44;43.03;100312.59;4934070;28;98586;-62
2022/03/29 04:29:43;;;;;;;;;;;;;;;16.43;43.08;100308.28;4920069;28;122764;-62
2022/03/29 04:32:09;;;;;;;;;;;;;;;16.43;43.21;100305.56;4919613;28;121787;-62
2022/03/29 04:34:35;;;;;;;;;;;;;;;16.43;43.18;100305.56;4920727;28;99039;-62
2022/03/29 04:37:01;;;;;;;;;;;;;;;16.43;43.11;100305.56;4920334;28;104860;-61
2022/03/29 04:39:27;;;;;;;;;;;;;;;16.43;43.17;100305.56;4917493;28;120545;-62
2022/03/29 04:41:53;;;;;;;;;;;;;;;16.42;42.97;100309.38;4919974;28;98217;-62
2022/03/29 04:44:19;;;;;;;;;;;;;;;16.43;43.17;100304.75;4920348;28;106366;-61
2022/03/29 04:46:45;;;;;;;;;;;;;;;16.41;43.11;100305.06;4917819;28;121853;-62
2022/03/29 04:49:11;;;;;;;;;;;;;;;16.41;43.31;100299.63;4917051;28;97890;-63
2022/03/29 04:51:37;;;;;;;;;;;;;;;16.42;43.08;100305.84;4916409;28;98430;-64
2022/03/29 04:54:03;;;;;;;;;;;;;;;16.41;43.07;100307.78;4916445;28;122395;-62
2022/03/29 04:56:29;;;;;;;;;;;;;;;16.41;43.11;100310.50;4915205;28;116512;-64
2022/03/29 04:58:55;;;;;;;;;;;;;;;16.41;43.30;100307.78;4917367;28;104325;-63
2022/03/29 05:01:21;;;;;;;;;;;;;;;16.42;43.10;100312.09;4914653;28;124630;-62
2022/03/29 05:03:47;;;;;;;;;;;;;;;16.41;43.26;100313.22;4927626;28;126950;-62
2022/03/29 05:06:13;;;;;;;;;;;;;;;16.43;43.10;100312.94;4907485;28;126674;-64
2022/03/29 05:08:39;;;;;;;;;;;;;;;16.43;43.01;100324.59;4916833;28;98199;-63
2022/03/29 05:11:05;;;;;;;;;;;;;;;16.42;43.02;100314.81;4916190;28;98737;-63
2022/03/29 05:13:31;;;;;;;;;;;;;;;16.43;43.38;100318.38;4918906;28;126552;-62
2022/03/29 05:15:57;;;;;;;;;;;;;;;16.43;43.47;100312.94;4901362;28;98979;-62
2022/03/29 05:18:23;;;;;;;;;;;;;;;16.43;43.32;100319.16;4902042;28;114478;-63
2022/03/29 05:20:49;;;;;;;;;;;;;;;16.43;43.18;100312.94;4901018;28;127523;-63
2022/03/29 05:23:18;;;;;;;;;;;;;;;16.45;43.23;100313.41;4919626;28;116813;-62
2022/03/29 05:25:44;;;;;;;;;;;;;;;16.46;43.27;100320.44;4933141;28;112037;-63
2022/03/29 05:28:10;;;;;;;;;;;;;;;16.46;42.93;100315.00;4923208;28;98417;-63
2022/03/29 05:30:36;;;;;;;;;;;;;;;16.45;42.99;100314.19;4918649;28;115761;-63
2022/03/29 05:33:02;;;;;;;;;;;;;;;16.48;43.30;100322.88;4918679;28;128623;-63
2022/03/29 05:35:33;;;;;;;;;;;;;;;16.47;43.27;100313.91;4901507;28;104188;-63
2022/03/29 05:38:01;;;;;;;;;;;;;;;16.48;43.25;100317.44;4921649;28;97903;-64
2022/03/29 05:40:28;;;;;;;;;;;;;;;16.49;43.36;100322.53;4901423;28;98154;-62
2022/03/29 05:42:54;;;;;;;;;;;;;;;16.48;43.27;100320.94;4920521;28;98532;-62
2022/03/29 05:45:20;;;;;;;;;;;;;;;16.49;43.31;100317.09;4919343;28;101502;-63
2022/03/29 05:50:31;;;;;;;;;;;;;;;16.52;43.20;100318.41;4917285;28;98754;-63
2022/03/29 05:52:57;;;;;;;;;;;;;;;16.53;43.22;100325.44;4917452;28;99179;-63
2022/03/29 05:55:23;;;;;;;;;;;;;;;16.53;43.53;100328.19;4918349;28;127563;-63
2022/03/29 05:57:49;;;;;;;;;;;;;;;16.53;43.55;100326.25;4920592;28;98067;-63
2022/03/29 06:00:23;;;;;;;;;;;;;;;16.55;43.38;100321.31;4919588;28;98684;-63
2022/03/29 06:02:52;;;;;;;;;;;;;;;16.57;43.60;100334.59;4920069;28;98392;-63
2022/03/29 06:05:18;;;;;;;;;;;;;;;16.57;43.32;100334.59;4918540;28;98458;-63
2022/03/29 06:07:44;;;;;;;;;;;;;;;16.59;43.19;100341.34;4919444;28;118146;-63
2022/03/29 06:10:11;;;;;;;;;;;;;;;16.60;43.37;100342.16;4918764;28;128619;-64
2022/03/29 06:12:37;;;;;;;;;;;;;;;16.63;43.32;100339.63;4919247;28;99220;-63
2022/03/29 06:15:04;;;;;;;;;;;;;;;16.65;43.60;100344.75;4918127;28;97945;-63
2022/03/29 06:17:30;;;;;;;;;;;;;;;16.67;43.50;100340.59;4924044;28;98041;-63
2022/03/29 06:19:55;;;;;;;;;;;;;;;16.68;43.33;100352.28;4918288;28;98929;-63
2022/03/29 06:22:22;;;;;;;;;;;;;;;16.70;43.49;100347.31;4919346;28;112650;-64
2022/03/29 06:24:48;;;;;;;;;;;;;;;16.72;43.29;100352.47;4919298;28;98561;-63
2022/03/29 06:27:14;;;;;;;;;;;;;;;16.73;43.57;100348.63;4918838;28;112068;-63
2022/03/29 06:29:40;;;;;;;;;;;;;;;16.75;43.45;100344.53;4917543;28;128444;-63
2022/03/29 06:32:06;;;;;;;;;;;;;;;16.78;43.45;100340.34;4919536;28;97808;-63
2022/03/29 06:34:32;;;;;;;;;;;;;;;16.80;43.41;100346.31;4918808;28;99852;-64
2022/03/29 06:36:59;;;;;;;;;;;;;;;16.82;43.36;100339.44;4921928;28;98065;-63
2022/03/29 06:39:25;;;;;;;;;;;;;;;16.86;43.55;100340.44;4922202;28;98990;-64
2022/03/29 06:41:50;;;;;;;;;;;;;;;16.91;43.50;100344.94;4904057;28;98131;-63
2022/03/29 06:44:17;;;;;;;;;;;;;;;16.90;43.47;100352.28;4920913;28;128343;-64
2022/03/29 06:46:43;;;;;;;;;;;;;;;16.91;43.50;100355.81;4922194;28;98337;-64
2022/03/29 06:49:09;;;;;;;;;;;;;;;16.91;43.64;100353.09;4921496;28;128180;-63
2022/03/29 06:51:35;;;;;;;;;;;;;;;16.90;43.53;100351.50;4920341;28;129366;-63
2022/03/29 06:54:02;;;;;;;;;;;;;;;16.89;43.73;100350.66;4921860;28;97897;-63
2022/03/29 06:56:28;;;;;;;;;;;;;;;16.89;43.74;100349.88;4922290;28;97953;-63
2022/03/29 06:58:54;;;;;;;;;;;;;;;16.88;43.73;100349.06;4923425;28;98940;-63
2022/03/29 07:01:21;;;;;;;;;;;;;;;16.88;43.74;100346.34;4920597;28;119717;-63
2022/03/29 07:03:47;;;;;;;;;;;;;;;16.89;43.82;100347.16;4922642;28;98499;-63
2022/03/29 07:06:13;;;;;;;;;;;;;;;16.88;43.84;100351.78;4921352;28;122708;-63
2022/03/29 07:11:16;;;;;;;;;;;;;;;16.89;43.90;100353.38;4903186;28;127862;-63
2022/03/29 07:11:25;;;;;;;;;;;;;;;16.89;43.94;100347.94;4921328;28;99426;-63
2022/03/29 07:13:51;;;;;;;;;;;;;;;16.88;43.95;100353.72;4902826;28;126579;-63
2022/03/29 07:16:17;;;;;;;;;;;;;;;16.88;44.06;100351.00;4921944;28;97825;-63
2022/03/29 07:18:43;;;;;;;;;;;;;;;16.88;43.91;100345.53;4920793;28;128104;-63
2022/03/29 07:21:10;;;;;;;;;;;;;;;16.92;43.92;100349.25;4903938;28;98403;-63
2022/03/29 07:23:39;;;;;;;;;;;;;;;16.95;43.98;100342.38;4919179;28;98589;-64
2022/03/29 07:26:05;;;;;;;;;;;;;;;16.98;43.83;100333.56;4920754;28;98079;-63
2022/03/29 07:28:31;;;;;;;;;;;;;;;17.01;43.95;100335.69;4920342;28;127556;-63
2022/03/29 07:30:57;;;;;;;;;;;;;;;17.02;43.93;100350.91;4919735;28;129776;-63
2022/03/29 07:33:23;;;;;;;;;;;;;;;17.01;43.95;100336.47;4921129;28;122755;-63
2022/03/29 07:35:49;;;;;;;;;;;;;;;17.01;43.98;100341.91;4902131;28;122272;-64
2022/03/29 07:38:15;;;;;;;;;;;;;;;17.02;44.08;100340.03;4921989;28;106019;-63
2022/03/29 07:40:41;;;;;;;;;;;;;;;17.04;43.91;100338.56;4920911;28;99578;-63
2022/03/29 07:43:09;;;;;;;;;;;;;;;17.17;43.81;100336.84;4921494;28;120837;-63
2022/03/29 07:45:35;;;;;;;;;;;;;;;17.22;43.96;100341.38;4921685;28;98271;-63
2022/03/29 07:48:03;;;;;;;;;;;;;;;17.29;43.70;100337.09;4920327;28;126406;-63
2022/03/29 07:50:29;;;;;;;;;;;;;;;17.37;43.75;100341.75;4920677;28;98935;-64
2022/03/29 07:52:57;;;;;;;;;;;;;;;17.47;43.60;100334.41;4921066;28;98500;-64
2022/03/29 07:55:24;;;;;;;;;;;;;;;17.55;43.75;100339.09;4920156;28;97757;-62
2022/03/29 07:57:50;;;;;;;;;;;;;;;17.60;43.67;100333.47;4921302;28;99332;-63
2022/03/29 08:00:35;;;;;;;;;;;;;;;17.73;43.51;100331.75;4900719;28;125228;-64
2022/03/29 08:03:09;;;;;;;;;;;;;;;17.79;43.62;100336.75;4921661;28;98074;-61
2022/03/29 08:05:35;;;;;;;;;;;;;;;17.80;43.68;100330.19;4920965;28;98012;-61
2022/03/29 08:08:01;;;;;;;;;;;;;;;17.85;43.71;100334.69;4922038;28;98644;-62
2022/03/29 08:10:29;;;;;;;;;;;;;;;17.98;43.58;100327.47;4920311;28;114458;-61
2022/03/29 08:12:56;;;;;;;;;;;;;;;18.12;43.48;100319.94;4920863;28;98421;-62
2022/03/29 08:15:22;;;;;;;;;;;;;;;18.27;43.40;100324.09;4920628;28;98007;-62
2022/03/29 08:17:48;;;;;;;;;;;;;;;18.37;43.40;100323.78;4919826;28;129082;-63
2022/03/29 08:20:14;;;;;;;;;;;;;;;18.48;43.42;100316.88;4920036;28;99133;-62
2022/03/29 08:22:44;;;;;;;;;;;;;;;18.55;43.41;100313.63;4920046;28;126270;-63
2022/03/29 08:25:14;;;;;;;;;;;;;;;18.60;43.38;100310.75;4930018;28;97915;-61
2022/03/29 08:27:40;;;;;;;;;;;;;;;18.61;43.61;100315.06;4930123;28;98497;-61
2022/03/29 08:30:07;;;;;;;;;;;;;;;18.59;43.73;100314.59;4920948;28;98577;-62
2022/03/29 08:32:35;;;;;;;;;;;;;;;18.64;43.59;100309.75;4903531;28;98019;-62
2022/03/29 08:35:02;;;;;;;;;;;;;;;18.71;43.55;100313.97;4920671;28;97889;-62
2022/03/29 08:37:28;;;;;;;;;;;;;;;18.72;43.66;100318.28;4920829;28;99026;-63
2022/03/29 08:39:55;;;;;;;;;;;;;;;18.72;43.72;100308.16;4900816;28;98340;-62
2022/03/29 08:42:22;;;;;;;;;;;;;;;18.71;43.93;100303.03;4907378;28;111508;-62
2022/03/29 08:44:48;;;;;;;;;;;;;;;18.68;43.92;100303.66;4918858;28;98245;-63
2022/03/29 08:47:17;;;;;;;;;;;;;;;18.67;43.87;100305.59;4919710;28;102361;-62
2022/03/29 08:49:44;;;;;;;;;;;;;;;18.63;43.97;100307.38;4920820;28;98679;-63
2022/03/29 08:52:11;;;;;;;;;;;;;;;18.55;44.09;100299.97;4920330;28;98688;-63
2022/03/29 08:54:37;;;;;;;;;;;;;;;18.48;44.13;100302.41;4920388;28;98117;-61
2022/03/29 08:57:03;;;;;;;;;;;;;;;18.42;44.28;100303.69;4919578;28;127190;-62
2022/03/29 08:59:29;;;;;;;;;;;;;;;18.36;44.48;100305.81;4920613;28;99339;-62
2022/03/29 09:02:02;;;;;;;;;;;;;;;18.31;44.50;100303.22;4918750;28;120657;-62
2022/03/29 09:04:29;;;;;;;;;;;;;;;18.26;44.55;100306.13;4901235;28;121788;-61
2022/03/29 09:07:00;;;;;;;;;;;;;;;18.24;44.49;100300.22;4919927;28;98968;-63
2022/03/29 09:09:45;;;;;;;;;;;;;;;18.21;44.49;100307.09;4920640;28;98210;-62
2022/03/29 09:12:16;;;;;;;;;;;;;;;18.20;44.46;100302.78;4919878;28;98585;-63
2022/03/29 09:14:59;;;;;;;;;;;;;;;18.25;44.15;100293.63;4920450;28;99511;-62
2022/03/29 09:17:36;;;;;;;;;;;;;;;18.43;44.03;100287.03;4919448;28;124074;-63
2022/03/29 09:20:22;;;;;;;;;;;;;;;18.62;43.84;100289.38;4919933;28;98250;-62
2022/03/29 09:22:52;;;;;;;;;;;;;;;18.64;43.97;100287.91;4918603;28;127664;-63
2022/03/29 09:25:23;;;;;;;;;;;;;;;18.66;43.77;100279.41;4931256;28;97805;-63
2022/03/29 09:27:54;;;;;;;;;;;;;;;18.61;43.86;100287.75;4927798;28;97917;-62
2022/03/29 09:30:20;;;;;;;;;;;;;;;18.53;44.18;100281.19;4919153;28;99288;-63
2022/03/29 09:33:03;;;;;;;;;;;;;;;18.50;44.16;100281.06;4919268;28;115938;-62
2022/03/29 09:35:30;;;;;;;;;;;;;;;18.46;44.25;100278.16;4919662;28;97927;-62
2022/03/29 09:37:56;;;;;;;;;;;;;;;18.45;44.31;100273.84;4901963;28;98996;-62
2022/03/29 09:40:25;;;;;;;;;;;;;;;18.48;44.05;100283.31;4918590;28;113519;-63
2022/03/29 09:43:24;;;;;;;;;;;;;;;18.52;44.27;100279.59;4901918;28;98175;-64
2022/03/29 09:45:55;;;;;;;;;;;;;;;18.56;44.19;100277.84;4887449;28;120364;-62
2022/03/29 09:48:29;;;;;;;;;;;;;;;18.59;44.12;100274.47;4915765;28;99034;-61
2022/03/29 09:50:57;;;;;;;;;;;;;;;18.58;44.22;100263.84;4919056;28;98527;-61
2022/03/29 09:53:33;;;;;;;;;;;;;;;18.56;44.30;100264.19;4919763;28;98457;-61
2022/03/29 09:55:59;;;;;;;;;;;;;;;18.55;44.15;100261.75;4919412;28;98394;-62
2022/03/29 09:58:25;;;;;;;;;;;;;;;18.63;44.03;100260.97;4918466;28;126836;-62
2022/03/29 10:00:51;;;;;;;;;;;;;;;18.67;44.12;100253.72;4919152;28;98793;-63
2022/03/29 10:03:17;;;;;;;;;;;;;;;18.64;44.00;100262.56;4918682;28;127609;-63
2022/03/29 10:05:43;;;;;;;;;;;;;;;18.71;43.97;100251.97;4918379;28;122579;-62
2022/03/29 10:11:01;;;;;;;;;;;;;;;18.84;44.21;100248.22;4920192;28;98471;-62
2022/03/29 10:13:28;;;;;;;;;;;;;;;18.90;44.01;100257.00;4921318;28;97811;-63
2022/03/29 10:15:55;;;;;;;;;;;;;;;19.01;43.76;100255.53;4920823;28;97995;-62
2022/03/29 10:18:24;;;;;;;;;;;;;;;19.13;43.63;100249.34;4904214;28;118419;-61
2022/03/29 10:20:50;;;;;;;;;;;;;;;19.23;43.80;100250.94;4922114;28;98287;-62
2022/03/29 10:23:18;;;;;;;;;;;;;;;19.27;43.80;100255.41;4921697;28;110228;-63
2022/03/29 10:25:44;;;;;;;;;;;;;;;19.35;43.75;100246.34;4921060;28;98263;-62
2022/03/29 10:28:10;;;;;;;;;;;;;;;19.40;43.50;100248.06;4903895;28;128035;-62
2022/03/29 10:30:37;;;;;;;;;;;;;;;19.61;43.53;100235.28;4918826;28;128915;-61
2022/03/29 10:33:20;;;;;;;;;;;;;;;19.73;43.34;100244.66;4922243;28;98112;-62
2022/03/29 10:36:06;;;;;;;;;;;;;;;19.77;43.41;100234.66;4920474;28;97866;-63
2022/03/29 10:38:47;;;;;;;;;;;;;;;19.89;43.28;100229.25;4922856;28;98738;-62
2022/03/29 10:41:28;;;;;;;;;;;;;;;20.06;43.22;100226.34;4922565;28;98208;-61
2022/03/29 10:43:54;;;;;;;;;;;;;;;20.18;43.13;100225.59;4902889;28;98694;-63
2022/03/29 10:46:37;;;;;;;;;;;;;;;20.28;43.13;100225.16;4902668;28;98292;-62
2022/03/29 10:49:25;;;;;;;;;;;;;;;20.44;42.94;100224.53;4901759;28;127014;-63
2022/03/29 10:52:06;;;;;;;;;;;;;;;20.71;42.69;100220.34;4918707;28;99040;-63
2022/03/29 10:54:34;;;;;;;;;;;;;;;20.94;42.52;100215.22;4922249;28;99997;-63
2022/03/29 10:57:07;;;;;;;;;;;;;;;21.04;42.48;100217.50;4922260;28;97835;-62
2022/03/29 10:59:34;;;;;;;;;;;;;;;21.08;42.61;100212.94;4921485;28;98567;-61
2022/03/29 11:02:15;;;;;;;;;;;;;;;21.12;42.63;100213.06;4920400;28;98779;-62
2022/03/29 11:05:12;;;;;;;;;;;;;;;21.23;42.63;100209.50;4921174;28;121542;-63
2022/03/29 11:07:53;;;;;;;;;;;;;;;21.29;42.79;100210.06;4922120;28;97930;-62
2022/03/29 11:10:20;;;;;;;;;;;;;;;21.43;42.55;100202.28;4921626;28;98658;-63
2022/03/29 11:12:53;;;;;;;;;;;;;;;21.77;42.26;100206.44;4921638;28;102627;-62
2022/03/29 11:15:25;;;;;;;;;;;;;;;22.29;41.53;100194.53;4902932;28;111738;-62
2022/03/29 11:17:52;;;;;;;;;;;;;;;22.94;40.90;100193.38;4922090;28;97912;-62
2022/03/29 11:20:35;;;;;;;;;;;;;;;22.85;41.27;100185.31;4921653;28;98813;-63
2022/03/29 11:23:04;;;;;;;;;;;;;;;22.99;41.65;100190.34;4919692;28;99361;-62
2022/03/29 11:25:38;;;;;;;;;;;;;;;23.38;41.19;100185.72;4920819;28;97784;-62
2022/03/29 11:28:08;;;;;;;;;;;;;;;23.63;40.93;100189.00;4921768;28;97835;-63
2022/03/29 11:30:34;;;;;;;;;;;;;;;23.64;41.27;100182.34;4921706;28;98821;-65
2022/03/29 11:33:02;;;;;;;;;;;;;;;23.58;41.46;100180.25;4922007;28;99338;-63
2022/03/29 11:35:28;;;;;;;;;;;;;;;23.57;41.54;100184.16;4921531;28;98441;-62
2022/03/29 11:37:54;;;;;;;;;;;;;;;24.69;39.97;100164.63;4921165;28;121660;-62
2022/03/29 11:40:21;;;;;;;;;;;;;;;25.23;39.82;100168.19;4920540;28;128031;-63
2022/03/29 11:42:49;;;;;;;;;;;;;;;24.85;40.40;100174.72;4921967;28;98463;-62
2022/03/29 11:45:16;;;;;;;;;;;;;;;24.67;41.03;100163.41;4921219;28;98667;-62
2022/03/29 11:47:52;;;;;;;;;;;;;;;24.57;41.14;100159.31;4921060;28;121699;-63
2022/03/29 11:50:37;;;;;;;;;;;;;;;24.79;41.01;100162.41;4921164;28;98277;-62
2022/03/29 11:53:15;;;;;;;;;;;;;;;24.56;40.83;100159.66;4919814;28;98285;-62
2022/03/29 11:55:41;;;;;;;;;;;;;;;24.37;41.28;100153.06;4919371;28;98169;-63
2022/03/29 11:58:41;;;;;;;;;;;;;;;24.18;41.29;100142.91;4921135;28;97886;-62
2022/03/29 12:01:18;;;;;;;;;;;;;;;24.29;40.77;100143.09;4887377;28;98151;-62
2022/03/29 12:03:52;;;;;;;;;;;;;;;24.13;41.02;100134.13;4919794;28;99527;-64
2022/03/29 12:06:19;;;;;;;;;;;;;;;24.08;40.97;100135.25;4920273;28;111329;-62
2022/03/29 12:09:04;;;;;;;;;;;;;;;24.35;40.47;100127.84;4922044;28;105685;-62
2022/03/29 12:11:32;;;;;;;;;;;;;;;24.49;40.27;100121.81;4919319;28;126366;-63
2022/03/29 12:14:17;;;;;;;;;;;;;;;25.14;39.51;100115.28;4903467;28;99166;-62
2022/03/29 12:16:47;;;;;;;;;;;;;;;25.70;38.76;100104.13;4920603;28;98074;-62
2022/03/29 12:19:14;;;;;;;;;;;;;;;26.12;38.31;100102.97;4920420;28;121447;-63
2022/03/29 12:21:42;;;;;;;;;;;;;;;26.41;38.58;100098.50;4920220;28;99649;-63
2022/03/29 12:24:09;;;;;;;;;;;;;;;26.73;38.23;100100.72;4919604;28;98282;-63
2022/03/29 12:26:40;;;;;;;;;;;;;;;27.01;38.04;100094.53;4919970;28;98108;-63
2022/03/29 12:29:08;;;;;;;;;;;;;;;27.27;37.76;100093.50;4899641;28;98024;-62
2022/03/29 12:31:35;;;;;;;;;;;;;;;27.53;37.67;100091.63;4887588;28;102894;-63
2022/03/29 12:34:01;;;;;;;;;;;;;;;27.70;37.55;100082.53;4919514;28;124122;-62
2022/03/29 12:36:27;;;;;;;;;;;;;;;27.84;37.67;100076.28;4918727;28;126995;-63
2022/03/29 12:39:01;;;;;;;;;;;;;;;27.87;37.44;100065.22;4920422;28;97869;-62
2022/03/29 12:41:48;;;;;;;;;;;;;;;27.96;37.49;100077.88;4919810;28;123577;-62
2022/03/29 12:44:15;;;;;;;;;;;;;;;28.23;37.20;100067.19;4920514;28;98432;-65
2022/03/29 12:46:45;;;;;;;;;;;;;;;28.29;37.28;100069.16;4920034;28;116211;-63